sensor_id;sensor_type;location;lat;lon;timestamp;temperature;humidity
563;DHT22;266;49.514;8.294;2023-02-10T00:01:12;-3.30;99.90
563;DHT22;266;49.514;8.294;2023-02-10T00:03:40;-3.20;99.90
563;DHT22;266;49.514;8.294;2023-02-10T00:06:10;-3.30;99.90
563;DHT22;266;49.514;8.294;2023-02-10T00:08:39;-3.30;99.90
563;DHT22;266;49.514;8.294;2023-02-10T00:11:10;-3.30;99.90
563;DHT22;266;49.514;8.294;2023-02-10T00:13:39;-3.30;99.90
563;DHT22;266;49.514;8.294;2023-02-10T00:16:09;-3.30;99.90
563;DHT22;266;49.514;8.294;2023-02-10T00:18:37;-3.40;99.90
563;DHT22;266;49.514;8.294;2023-02-10T00:21:07;-3.40;99.90
563;DHT22;266;49.514;8.294;2023-02-10T00:23:35;-3.40;99.90
563;DHT22;266;49.514;8.294;2023-02-10T00:26:04;-3.50;99.90
563;DHT22;266;49.514;8.294;2023-02-10T00:28:34;-3.50;99.90
563;DHT22;266;49.514;8.294;2023-02-10T00:31:05;-3.50;99.90
563;DHT22;266;49.514;8.294;2023-02-10T00:33:34;-3.50;99.90
563;DHT22;266;49.514;8.294;2023-02-10T00:36:03;-3.50;99.90
563;DHT22;266;49.514;8.294;2023-02-10T00:38:32;-3.40;99.90
563;DHT22;266;49.514;8.294;2023-02-10T00:41:02;-3.40;99.90
563;DHT22;266;49.514;8.294;2023-02-10T00:43:30;-3.30;99.90
563;DHT22;266;49.514;8.294;2023-02-10T00:46:00;-3.30;99.90
563;DHT22;266;49.514;8.294;2023-02-10T00:48:28;-3.30;99.90
563;DHT22;266;49.514;8.294;2023-02-10T00:50:56;-3.30;99.90
563;DHT22;266;49.514;8.294;2023-02-10T00:53:24;-3.40;99.90
563;DHT22;266;49.514;8.294;2023-02-10T00:55:52;-3.40;99.90
563;DHT22;266;49.514;8.294;2023-02-10T00:58:23;-3.40;99.90
563;DHT22;266;49.514;8.294;2023-02-10T01:00:53;-3.40;99.90
563;DHT22;266;49.514;8.294;2023-02-10T01:03:23;-3.40;99.90
563;DHT22;266;49.514;8.294;2023-02-10T01:05:51;-3.40;99.90
563;DHT22;266;49.514;8.294;2023-02-10T01:08:19;-3.40;99.90
563;DHT22;266;49.514;8.294;2023-02-10T01:10:47;-3.40;99.90
563;DHT22;266;49.514;8.294;2023-02-10T01:13:15;-3.50;99.90
563;DHT22;266;49.514;8.294;2023-02-10T01:15:46;-3.50;99.90
563;DHT22;266;49.514;8.294;2023-02-10T01:18:14;-3.50;99.90
563;DHT22;266;49.514;8.294;2023-02-10T01:20:44;-3.50;99.90
563;DHT22;266;49.514;8.294;2023-02-10T01:23:12;-3.50;99.90
563;DHT22;266;49.514;8.294;2023-02-10T01:25:40;-3.50;99.90
563;DHT22;266;49.514;8.294;2023-02-10T01:28:08;-3.50;99.90
563;DHT22;266;49.514;8.294;2023-02-10T01:30:37;-3.50;99.90
563;DHT22;266;49.514;8.294;2023-02-10T01:33:05;-3.60;99.90
563;DHT22;266;49.514;8.294;2023-02-10T01:35:33;-3.50;99.90
563;DHT22;266;49.514;8.294;2023-02-10T01:38:05;-3.50;99.90
563;DHT22;266;49.514;8.294;2023-02-10T01:40:34;-3.50;99.90
563;DHT22;266;49.514;8.294;2023-02-10T01:43:02;-3.60;99.90
563;DHT22;266;49.514;8.294;2023-02-10T01:45:37;-3.60;99.90
563;DHT22;266;49.514;8.294;2023-02-10T01:48:08;-3.70;99.90
563;DHT22;266;49.514;8.294;2023-02-10T01:50:39;-3.50;99.90
563;DHT22;266;49.514;8.294;2023-02-10T01:53:10;-3.40;99.90
563;DHT22;266;49.514;8.294;2023-02-10T01:55:41;-3.50;99.90
563;DHT22;266;49.514;8.294;2023-02-10T01:58:13;-3.60;99.90
563;DHT22;266;49.514;8.294;2023-02-10T02:00:41;-3.60;99.90
563;DHT22;266;49.514;8.294;2023-02-10T02:03:10;-3.70;99.90
563;DHT22;266;49.514;8.294;2023-02-10T02:05:40;-3.70;99.90
563;DHT22;266;49.514;8.294;2023-02-10T02:08:11;-3.70;99.90
563;DHT22;266;49.514;8.294;2023-02-10T02:10:54;-3.70;99.90
563;DHT22;266;49.514;8.294;2023-02-10T02:13:35;-3.70;99.90
563;DHT22;266;49.514;8.294;2023-02-10T02:16:14;-3.80;99.90
563;DHT22;266;49.514;8.294;2023-02-10T02:18:50;-3.80;99.90
563;DHT22;266;49.514;8.294;2023-02-10T02:21:39;-3.80;99.90
563;DHT22;266;49.514;8.294;2023-02-10T02:24:25;-3.80;99.90
563;DHT22;266;49.514;8.294;2023-02-10T02:27:13;-3.80;99.90
563;DHT22;266;49.514;8.294;2023-02-10T02:30:18;-3.80;99.90
563;DHT22;266;49.514;8.294;2023-02-10T02:32:57;-3.80;99.90
563;DHT22;266;49.514;8.294;2023-02-10T02:35:32;-3.80;99.90
563;DHT22;266;49.514;8.294;2023-02-10T02:38:01;-3.90;99.90
563;DHT22;266;49.514;8.294;2023-02-10T02:40:29;-3.90;99.90
563;DHT22;266;49.514;8.294;2023-02-10T02:42:57;-3.90;99.90
563;DHT22;266;49.514;8.294;2023-02-10T02:45:29;-3.90;99.90
563;DHT22;266;49.514;8.294;2023-02-10T02:48:16;-3.90;99.90
563;DHT22;266;49.514;8.294;2023-02-10T02:50:55;-3.90;99.90
563;DHT22;266;49.514;8.294;2023-02-10T02:53:31;-3.90;99.90
563;DHT22;266;49.514;8.294;2023-02-10T02:56:08;-3.90;99.90
563;DHT22;266;49.514;8.294;2023-02-10T02:58:47;-3.90;99.90
563;DHT22;266;49.514;8.294;2023-02-10T03:01:21;-4.00;99.90
563;DHT22;266;49.514;8.294;2023-02-10T03:03:54;-4.00;99.90
563;DHT22;266;49.514;8.294;2023-02-10T03:06:22;-4.00;99.90
563;DHT22;266;49.514;8.294;2023-02-10T03:08:50;-4.00;99.90
563;DHT22;266;49.514;8.294;2023-02-10T03:11:19;-4.00;99.90
563;DHT22;266;49.514;8.294;2023-02-10T03:13:47;-4.00;99.90
563;DHT22;266;49.514;8.294;2023-02-10T03:16:15;-4.00;99.90
563;DHT22;266;49.514;8.294;2023-02-10T03:18:43;-4.10;99.90
563;DHT22;266;49.514;8.294;2023-02-10T03:21:12;-4.00;99.90
563;DHT22;266;49.514;8.294;2023-02-10T03:23:40;-3.90;99.90
563;DHT22;266;49.514;8.294;2023-02-10T03:26:08;-4.00;99.90
563;DHT22;266;49.514;8.294;2023-02-10T03:28:36;-4.00;99.90
563;DHT22;266;49.514;8.294;2023-02-10T03:31:06;-4.10;99.90
563;DHT22;266;49.514;8.294;2023-02-10T03:33:35;-4.10;99.90
563;DHT22;266;49.514;8.294;2023-02-10T03:36:04;-4.20;99.90
563;DHT22;266;49.514;8.294;2023-02-10T03:38:33;-4.20;99.90
563;DHT22;266;49.514;8.294;2023-02-10T03:41:01;-4.20;99.90
563;DHT22;266;49.514;8.294;2023-02-10T03:43:29;-4.20;99.90
563;DHT22;266;49.514;8.294;2023-02-10T03:45:59;-4.20;99.90
563;DHT22;266;49.514;8.294;2023-02-10T03:48:29;-4.20;99.90
563;DHT22;266;49.514;8.294;2023-02-10T03:50:58;-4.20;99.90
563;DHT22;266;49.514;8.294;2023-02-10T03:53:27;-4.20;99.90
563;DHT22;266;49.514;8.294;2023-02-10T03:55:57;-4.30;99.90
563;DHT22;266;49.514;8.294;2023-02-10T03:58:25;-4.30;99.90
563;DHT22;266;49.514;8.294;2023-02-10T04:00:53;-4.30;99.90
563;DHT22;266;49.514;8.294;2023-02-10T04:03:21;-4.40;99.90
563;DHT22;266;49.514;8.294;2023-02-10T04:05:49;-4.40;99.90
563;DHT22;266;49.514;8.294;2023-02-10T04:08:17;-4.40;99.90
563;DHT22;266;49.514;8.294;2023-02-10T04:10:45;-4.40;99.90
563;DHT22;266;49.514;8.294;2023-02-10T04:13:14;-4.40;99.90
563;DHT22;266;49.514;8.294;2023-02-10T04:15:42;-4.40;99.90
563;DHT22;266;49.514;8.294;2023-02-10T04:18:10;-4.40;99.90
563;DHT22;266;49.514;8.294;2023-02-10T04:20:38;-4.40;99.90
563;DHT22;266;49.514;8.294;2023-02-10T04:23:06;-4.40;99.90
563;DHT22;266;49.514;8.294;2023-02-10T04:25:34;-4.30;99.90
563;DHT22;266;49.514;8.294;2023-02-10T04:28:02;-4.40;99.90
563;DHT22;266;49.514;8.294;2023-02-10T04:30:31;-4.40;99.90
563;DHT22;266;49.514;8.294;2023-02-10T04:32:59;-4.50;99.90
563;DHT22;266;49.514;8.294;2023-02-10T04:35:27;-4.60;99.90
563;DHT22;266;49.514;8.294;2023-02-10T04:37:55;-4.60;99.90
563;DHT22;266;49.514;8.294;2023-02-10T04:40:25;-4.70;99.90
563;DHT22;266;49.514;8.294;2023-02-10T04:42:53;-4.70;99.90
563;DHT22;266;49.514;8.294;2023-02-10T04:45:21;-4.70;99.90
563;DHT22;266;49.514;8.294;2023-02-10T04:47:51;-4.70;99.90
563;DHT22;266;49.514;8.294;2023-02-10T04:50:18;-4.70;99.90
563;DHT22;266;49.514;8.294;2023-02-10T04:52:46;-4.80;99.90
563;DHT22;266;49.514;8.294;2023-02-10T04:55:14;-4.80;99.90
563;DHT22;266;49.514;8.294;2023-02-10T04:57:42;-4.80;99.90
563;DHT22;266;49.514;8.294;2023-02-10T05:00:12;-4.70;99.90
563;DHT22;266;49.514;8.294;2023-02-10T05:02:40;-4.70;99.90
563;DHT22;266;49.514;8.294;2023-02-10T05:05:11;-4.70;99.90
563;DHT22;266;49.514;8.294;2023-02-10T05:07:39;-4.70;99.90
563;DHT22;266;49.514;8.294;2023-02-10T05:10:07;-4.80;99.90
563;DHT22;266;49.514;8.294;2023-02-10T05:12:36;-4.80;99.90
563;DHT22;266;49.514;8.294;2023-02-10T05:15:04;-4.80;99.90
563;DHT22;266;49.514;8.294;2023-02-10T05:17:34;-4.70;99.90
563;DHT22;266;49.514;8.294;2023-02-10T05:20:02;-4.70;99.90
563;DHT22;266;49.514;8.294;2023-02-10T05:22:34;-4.70;99.90
563;DHT22;266;49.514;8.294;2023-02-10T05:25:02;-4.70;99.90
563;DHT22;266;49.514;8.294;2023-02-10T05:27:30;-4.70;99.90
563;DHT22;266;49.514;8.294;2023-02-10T05:29:58;-4.60;99.90
563;DHT22;266;49.514;8.294;2023-02-10T05:32:26;-4.60;99.90
563;DHT22;266;49.514;8.294;2023-02-10T05:34:54;-4.50;99.90
563;DHT22;266;49.514;8.294;2023-02-10T05:37:22;-4.50;99.90
563;DHT22;266;49.514;8.294;2023-02-10T05:39:52;-4.40;99.90
563;DHT22;266;49.514;8.294;2023-02-10T05:42:19;-4.30;99.90
563;DHT22;266;49.514;8.294;2023-02-10T05:44:48;-4.30;99.90
563;DHT22;266;49.514;8.294;2023-02-10T05:47:16;-4.20;99.90
563;DHT22;266;49.514;8.294;2023-02-10T05:49:43;-4.20;99.90
563;DHT22;266;49.514;8.294;2023-02-10T05:52:12;-4.10;99.90
563;DHT22;266;49.514;8.294;2023-02-10T05:54:40;-4.10;99.90
563;DHT22;266;49.514;8.294;2023-02-10T05:57:09;-4.10;99.90
563;DHT22;266;49.514;8.294;2023-02-10T05:59:37;-4.00;99.90
563;DHT22;266;49.514;8.294;2023-02-10T06:02:05;-3.90;99.90
563;DHT22;266;49.514;8.294;2023-02-10T06:04:33;-3.90;99.90
563;DHT22;266;49.514;8.294;2023-02-10T06:07:01;-3.90;99.90
563;DHT22;266;49.514;8.294;2023-02-10T06:09:30;-3.80;99.90
563;DHT22;266;49.514;8.294;2023-02-10T06:11:58;-3.80;99.90
563;DHT22;266;49.514;8.294;2023-02-10T06:14:27;-3.70;99.90
563;DHT22;266;49.514;8.294;2023-02-10T06:16:55;-3.60;99.90
563;DHT22;266;49.514;8.294;2023-02-10T06:19:23;-3.50;99.90
563;DHT22;266;49.514;8.294;2023-02-10T06:21:51;-3.30;99.90
563;DHT22;266;49.514;8.294;2023-02-10T06:24:19;-3.40;99.90
563;DHT22;266;49.514;8.294;2023-02-10T06:26:47;-3.40;99.90
563;DHT22;266;49.514;8.294;2023-02-10T06:29:15;-3.30;99.90
563;DHT22;266;49.514;8.294;2023-02-10T06:31:44;-3.20;99.90
563;DHT22;266;49.514;8.294;2023-02-10T06:34:12;-3.20;99.90
563;DHT22;266;49.514;8.294;2023-02-10T06:36:40;-3.20;99.90
563;DHT22;266;49.514;8.294;2023-02-10T06:39:08;-3.30;99.90
563;DHT22;266;49.514;8.294;2023-02-10T06:41:36;-3.40;99.90
563;DHT22;266;49.514;8.294;2023-02-10T06:44:04;-3.40;99.90
563;DHT22;266;49.514;8.294;2023-02-10T06:46:32;-3.30;99.90
563;DHT22;266;49.514;8.294;2023-02-10T06:49:02;-3.20;99.90
563;DHT22;266;49.514;8.294;2023-02-10T06:51:30;-3.10;99.90
563;DHT22;266;49.514;8.294;2023-02-10T06:53:58;-3.10;99.90
563;DHT22;266;49.514;8.294;2023-02-10T06:56:26;-3.10;99.90
563;DHT22;266;49.514;8.294;2023-02-10T06:58:54;-3.10;99.90
563;DHT22;266;49.514;8.294;2023-02-10T07:01:22;-3.20;99.90
563;DHT22;266;49.514;8.294;2023-02-10T07:03:50;-3.10;99.90
563;DHT22;266;49.514;8.294;2023-02-10T07:06:19;-2.90;99.90
563;DHT22;266;49.514;8.294;2023-02-10T07:08:47;-2.80;99.90
563;DHT22;266;49.514;8.294;2023-02-10T07:11:17;-2.70;99.90
563;DHT22;266;49.514;8.294;2023-02-10T07:13:45;-2.70;99.90
563;DHT22;266;49.514;8.294;2023-02-10T07:16:13;-2.70;99.90
563;DHT22;266;49.514;8.294;2023-02-10T07:18:43;-2.70;99.90
563;DHT22;266;49.514;8.294;2023-02-10T07:21:11;-2.50;99.90
563;DHT22;266;49.514;8.294;2023-02-10T07:23:40;-2.40;99.90
563;DHT22;266;49.514;8.294;2023-02-10T07:26:09;-2.20;99.90
563;DHT22;266;49.514;8.294;2023-02-10T07:28:38;-1.80;99.90
563;DHT22;266;49.514;8.294;2023-02-10T07:31:06;-1.70;99.90
563;DHT22;266;49.514;8.294;2023-02-10T07:33:34;-1.60;99.90
563;DHT22;266;49.514;8.294;2023-02-10T07:36:03;-1.50;99.90
563;DHT22;266;49.514;8.294;2023-02-10T07:38:31;-1.00;99.90
563;DHT22;266;49.514;8.294;2023-02-10T07:41:01;-0.60;99.90
563;DHT22;266;49.514;8.294;2023-02-10T07:43:29;-0.40;99.90
563;DHT22;266;49.514;8.294;2023-02-10T07:45:57;-0.40;99.90
563;DHT22;266;49.514;8.294;2023-02-10T07:48:25;-0.30;99.90
563;DHT22;266;49.514;8.294;2023-02-10T07:50:54;-0.30;99.90
563;DHT22;266;49.514;8.294;2023-02-10T07:53:22;-0.30;99.90
563;DHT22;266;49.514;8.294;2023-02-10T07:55:50;-0.20;99.90
563;DHT22;266;49.514;8.294;2023-02-10T07:58:19;0.00;99.90
563;DHT22;266;49.514;8.294;2023-02-10T08:00:47;-0.20;99.90
563;DHT22;266;49.514;8.294;2023-02-10T08:03:16;-0.40;99.90
563;DHT22;266;49.514;8.294;2023-02-10T08:05:43;-0.50;99.90
563;DHT22;266;49.514;8.294;2023-02-10T08:08:15;-0.50;99.90
563;DHT22;266;49.514;8.294;2023-02-10T08:10:43;-0.50;99.90
563;DHT22;266;49.514;8.294;2023-02-10T08:13:11;-0.50;99.90
563;DHT22;266;49.514;8.294;2023-02-10T08:15:40;-0.60;99.90
563;DHT22;266;49.514;8.294;2023-02-10T08:18:08;-0.70;99.90
563;DHT22;266;49.514;8.294;2023-02-10T08:20:36;-0.90;99.90
563;DHT22;266;49.514;8.294;2023-02-10T08:23:04;-0.90;99.90
563;DHT22;266;49.514;8.294;2023-02-10T08:25:32;-0.90;99.90
563;DHT22;266;49.514;8.294;2023-02-10T08:28:00;-0.90;99.90
563;DHT22;266;49.514;8.294;2023-02-10T08:30:28;-0.80;99.90
563;DHT22;266;49.514;8.294;2023-02-10T08:32:58;-0.70;99.90
563;DHT22;266;49.514;8.294;2023-02-10T08:35:26;-0.70;99.90
563;DHT22;266;49.514;8.294;2023-02-10T08:37:54;-0.60;99.90
563;DHT22;266;49.514;8.294;2023-02-10T08:40:22;-0.60;99.90
563;DHT22;266;49.514;8.294;2023-02-10T08:42:50;-0.50;99.90
563;DHT22;266;49.514;8.294;2023-02-10T08:45:18;-0.50;99.90
563;DHT22;266;49.514;8.294;2023-02-10T08:47:46;-0.50;99.90
563;DHT22;266;49.514;8.294;2023-02-10T08:50:16;-0.40;99.90
563;DHT22;266;49.514;8.294;2023-02-10T08:52:44;-0.50;99.90
563;DHT22;266;49.514;8.294;2023-02-10T08:55:12;-0.50;99.90
563;DHT22;266;49.514;8.294;2023-02-10T08:57:41;-0.40;99.90
563;DHT22;266;49.514;8.294;2023-02-10T09:00:09;-0.40;99.90
563;DHT22;266;49.514;8.294;2023-02-10T09:02:37;-0.40;99.90
563;DHT22;266;49.514;8.294;2023-02-10T09:05:06;-0.50;99.90
563;DHT22;266;49.514;8.294;2023-02-10T09:07:38;-0.40;99.90
563;DHT22;266;49.514;8.294;2023-02-10T09:10:06;-0.40;99.90
563;DHT22;266;49.514;8.294;2023-02-10T09:12:37;-0.30;99.90
563;DHT22;266;49.514;8.294;2023-02-10T09:15:05;-0.20;99.90
563;DHT22;266;49.514;8.294;2023-02-10T09:17:33;-0.20;99.90
563;DHT22;266;49.514;8.294;2023-02-10T09:20:02;-0.20;99.90
563;DHT22;266;49.514;8.294;2023-02-10T09:22:30;-0.20;99.90
563;DHT22;266;49.514;8.294;2023-02-10T09:24:59;-0.10;99.90
563;DHT22;266;49.514;8.294;2023-02-10T09:27:27;0.00;99.90
563;DHT22;266;49.514;8.294;2023-02-10T09:29:55;0.00;99.90
563;DHT22;266;49.514;8.294;2023-02-10T09:32:23;0.10;99.90
563;DHT22;266;49.514;8.294;2023-02-10T09:34:51;0.10;99.90
563;DHT22;266;49.514;8.294;2023-02-10T09:37:19;0.10;99.90
563;DHT22;266;49.514;8.294;2023-02-10T09:39:48;0.20;99.90
563;DHT22;266;49.514;8.294;2023-02-10T09:42:24;0.20;99.90
563;DHT22;266;49.514;8.294;2023-02-10T09:44:59;0.30;99.90
563;DHT22;266;49.514;8.294;2023-02-10T09:47:41;0.30;99.90
563;DHT22;266;49.514;8.294;2023-02-10T09:50:22;0.40;99.90
563;DHT22;266;49.514;8.294;2023-02-10T09:53:03;0.50;99.90
563;DHT22;266;49.514;8.294;2023-02-10T09:55:37;0.60;99.90
563;DHT22;266;49.514;8.294;2023-02-10T09:58:14;0.70;99.90
563;DHT22;266;49.514;8.294;2023-02-10T10:00:45;0.80;99.90
563;DHT22;266;49.514;8.294;2023-02-10T10:03:15;0.80;99.90
563;DHT22;266;49.514;8.294;2023-02-10T10:05:51;0.80;99.90
563;DHT22;266;49.514;8.294;2023-02-10T10:08:25;0.80;99.90
563;DHT22;266;49.514;8.294;2023-02-10T10:10:58;0.80;99.90
563;DHT22;266;49.514;8.294;2023-02-10T10:13:29;0.80;99.90
563;DHT22;266;49.514;8.294;2023-02-10T10:21:43;0.90;99.90
563;DHT22;266;49.514;8.294;2023-02-10T10:24:26;1.00;99.90
563;DHT22;266;49.514;8.294;2023-02-10T10:27:10;1.20;99.90
563;DHT22;266;49.514;8.294;2023-02-10T10:29:47;1.40;99.90
563;DHT22;266;49.514;8.294;2023-02-10T10:32:17;1.40;99.90
563;DHT22;266;49.514;8.294;2023-02-10T10:34:50;1.50;99.90
563;DHT22;266;49.514;8.294;2023-02-10T10:37:21;1.50;99.90
563;DHT22;266;49.514;8.294;2023-02-10T10:39:52;1.60;99.90
563;DHT22;266;49.514;8.294;2023-02-10T10:42:23;1.60;99.90
563;DHT22;266;49.514;8.294;2023-02-10T10:44:59;1.70;99.90
563;DHT22;266;49.514;8.294;2023-02-10T10:47:36;1.70;99.90
563;DHT22;266;49.514;8.294;2023-02-10T10:50:06;1.70;99.90
563;DHT22;266;49.514;8.294;2023-02-10T10:52:40;1.80;99.90
563;DHT22;266;49.514;8.294;2023-02-10T10:55:13;1.70;99.90
563;DHT22;266;49.514;8.294;2023-02-10T10:57:43;1.70;99.90
563;DHT22;266;49.514;8.294;2023-02-10T11:00:22;1.70;99.90
563;DHT22;266;49.514;8.294;2023-02-10T11:02:53;1.80;99.90
563;DHT22;266;49.514;8.294;2023-02-10T11:05:21;1.90;99.90
563;DHT22;266;49.514;8.294;2023-02-10T11:07:51;2.00;99.90
563;DHT22;266;49.514;8.294;2023-02-10T11:10:23;2.10;99.90
563;DHT22;266;49.514;8.294;2023-02-10T11:12:53;2.30;99.90
563;DHT22;266;49.514;8.294;2023-02-10T11:15:38;2.50;99.90
563;DHT22;266;49.514;8.294;2023-02-10T11:18:15;2.90;99.90
563;DHT22;266;49.514;8.294;2023-02-10T11:20:53;3.00;99.90
563;DHT22;266;49.514;8.294;2023-02-10T11:23:21;3.10;99.90
563;DHT22;266;49.514;8.294;2023-02-10T11:25:56;3.10;99.90
563;DHT22;266;49.514;8.294;2023-02-10T11:28:26;3.10;99.90
563;DHT22;266;49.514;8.294;2023-02-10T11:30:58;3.10;99.90
563;DHT22;266;49.514;8.294;2023-02-10T11:33:29;3.10;99.90
563;DHT22;266;49.514;8.294;2023-02-10T11:36:01;3.30;99.90
563;DHT22;266;49.514;8.294;2023-02-10T11:38:30;3.40;99.90
563;DHT22;266;49.514;8.294;2023-02-10T11:41:01;3.50;99.90
563;DHT22;266;49.514;8.294;2023-02-10T11:43:35;3.60;99.90
563;DHT22;266;49.514;8.294;2023-02-10T11:46:06;3.70;99.90
563;DHT22;266;49.514;8.294;2023-02-10T11:48:36;3.80;99.90
563;DHT22;266;49.514;8.294;2023-02-10T11:51:12;3.90;99.90
563;DHT22;266;49.514;8.294;2023-02-10T11:53:41;4.10;99.90
563;DHT22;266;49.514;8.294;2023-02-10T11:56:16;4.20;99.90
563;DHT22;266;49.514;8.294;2023-02-10T11:58:52;4.30;99.90
563;DHT22;266;49.514;8.294;2023-02-10T12:01:47;4.40;99.90
563;DHT22;266;49.514;8.294;2023-02-10T12:04:32;4.60;99.90
563;DHT22;266;49.514;8.294;2023-02-10T12:07:09;4.70;99.90
563;DHT22;266;49.514;8.294;2023-02-10T12:09:45;4.80;99.90
563;DHT22;266;49.514;8.294;2023-02-10T12:12:22;4.80;99.90
563;DHT22;266;49.514;8.294;2023-02-10T12:14:57;4.80;99.90
563;DHT22;266;49.514;8.294;2023-02-10T12:17:30;4.90;99.90
563;DHT22;266;49.514;8.294;2023-02-10T12:20:08;4.90;99.90
563;DHT22;266;49.514;8.294;2023-02-10T12:22:52;4.90;99.90
563;DHT22;266;49.514;8.294;2023-02-10T12:25:26;5.00;99.90
563;DHT22;266;49.514;8.294;2023-02-10T12:28:03;4.90;99.90
563;DHT22;266;49.514;8.294;2023-02-10T12:30:39;4.90;99.90
563;DHT22;266;49.514;8.294;2023-02-10T12:33:30;4.80;99.90
563;DHT22;266;49.514;8.294;2023-02-10T12:36:09;4.80;99.90
563;DHT22;266;49.514;8.294;2023-02-10T12:38:54;4.90;99.90
563;DHT22;266;49.514;8.294;2023-02-10T12:41:30;4.90;99.90
563;DHT22;266;49.514;8.294;2023-02-10T12:44:12;5.00;99.90
563;DHT22;266;49.514;8.294;2023-02-10T12:46:51;5.10;99.90
563;DHT22;266;49.514;8.294;2023-02-10T12:49:35;5.30;99.90
563;DHT22;266;49.514;8.294;2023-02-10T12:52:07;5.40;99.90
563;DHT22;266;49.514;8.294;2023-02-10T12:54:43;5.60;99.90
563;DHT22;266;49.514;8.294;2023-02-10T12:57:16;5.70;99.90
563;DHT22;266;49.514;8.294;2023-02-10T12:59:55;5.70;99.90
563;DHT22;266;49.514;8.294;2023-02-10T13:02:31;5.90;99.90
563;DHT22;266;49.514;8.294;2023-02-10T13:05:05;6.00;99.90
563;DHT22;266;49.514;8.294;2023-02-10T13:07:40;6.00;99.90
563;DHT22;266;49.514;8.294;2023-02-10T13:10:20;6.10;99.90
563;DHT22;266;49.514;8.294;2023-02-10T13:12:50;6.10;99.90
563;DHT22;266;49.514;8.294;2023-02-10T13:15:25;6.20;99.90
563;DHT22;266;49.514;8.294;2023-02-10T13:17:55;6.30;99.90
563;DHT22;266;49.514;8.294;2023-02-10T13:20:30;6.50;99.90
563;DHT22;266;49.514;8.294;2023-02-10T13:23:13;6.50;99.90
563;DHT22;266;49.514;8.294;2023-02-10T13:25:54;6.60;99.90
563;DHT22;266;49.514;8.294;2023-02-10T13:28:31;6.70;99.90
563;DHT22;266;49.514;8.294;2023-02-10T13:31:19;6.70;99.90
563;DHT22;266;49.514;8.294;2023-02-10T13:33:56;6.70;99.90
563;DHT22;266;49.514;8.294;2023-02-10T13:36:30;6.80;99.90
563;DHT22;266;49.514;8.294;2023-02-10T13:39:02;6.90;99.90
563;DHT22;266;49.514;8.294;2023-02-10T13:41:34;7.00;99.90
563;DHT22;266;49.514;8.294;2023-02-10T13:44:23;6.90;99.90
563;DHT22;266;49.514;8.294;2023-02-10T13:46:56;7.00;99.90
563;DHT22;266;49.514;8.294;2023-02-10T13:49:24;7.00;99.90
563;DHT22;266;49.514;8.294;2023-02-10T13:52:12;7.10;99.90
563;DHT22;266;49.514;8.294;2023-02-10T13:54:53;7.00;99.90
563;DHT22;266;49.514;8.294;2023-02-10T13:57:28;7.00;99.90
563;DHT22;266;49.514;8.294;2023-02-10T14:00:14;6.90;99.90
563;DHT22;266;49.514;8.294;2023-02-10T14:02:44;6.80;99.90
563;DHT22;266;49.514;8.294;2023-02-10T14:05:24;6.70;99.90
563;DHT22;266;49.514;8.294;2023-02-10T14:07:54;6.50;99.90
563;DHT22;266;49.514;8.294;2023-02-10T14:10:33;6.50;99.90
563;DHT22;266;49.514;8.294;2023-02-10T14:13:04;6.60;99.90
563;DHT22;266;49.514;8.294;2023-02-10T14:15:35;6.50;99.90
563;DHT22;266;49.514;8.294;2023-02-10T14:18:06;6.50;99.90
563;DHT22;266;49.514;8.294;2023-02-10T14:20:55;6.50;99.90
563;DHT22;266;49.514;8.294;2023-02-10T14:23:25;6.40;99.90
563;DHT22;266;49.514;8.294;2023-02-10T14:25:56;6.40;99.90
563;DHT22;266;49.514;8.294;2023-02-10T14:28:28;6.40;99.90
563;DHT22;266;49.514;8.294;2023-02-10T14:30:59;6.40;99.90
563;DHT22;266;49.514;8.294;2023-02-10T14:33:29;6.40;99.90
563;DHT22;266;49.514;8.294;2023-02-10T14:36:00;6.50;99.90
563;DHT22;266;49.514;8.294;2023-02-10T14:38:31;6.50;99.90
563;DHT22;266;49.514;8.294;2023-02-10T14:41:01;6.50;99.90
563;DHT22;266;49.514;8.294;2023-02-10T14:43:46;6.60;99.90
563;DHT22;266;49.514;8.294;2023-02-10T14:46:19;6.60;99.90
563;DHT22;266;49.514;8.294;2023-02-10T14:48:47;6.60;99.90
563;DHT22;266;49.514;8.294;2023-02-10T14:51:20;6.60;99.90
563;DHT22;266;49.514;8.294;2023-02-10T14:53:50;6.70;99.90
563;DHT22;266;49.514;8.294;2023-02-10T14:56:19;6.80;99.90
563;DHT22;266;49.514;8.294;2023-02-10T14:58:49;6.80;99.90
563;DHT22;266;49.514;8.294;2023-02-10T15:01:23;6.80;99.90
563;DHT22;266;49.514;8.294;2023-02-10T15:03:52;6.70;99.90
563;DHT22;266;49.514;8.294;2023-02-10T15:06:23;6.70;99.90
563;DHT22;266;49.514;8.294;2023-02-10T15:08:55;6.70;99.90
563;DHT22;266;49.514;8.294;2023-02-10T15:11:26;6.60;99.90
563;DHT22;266;49.514;8.294;2023-02-10T15:14:15;6.60;99.90
563;DHT22;266;49.514;8.294;2023-02-10T15:16:45;6.60;99.90
563;DHT22;266;49.514;8.294;2023-02-10T15:19:16;6.60;99.90
563;DHT22;266;49.514;8.294;2023-02-10T15:21:45;6.60;99.90
563;DHT22;266;49.514;8.294;2023-02-10T15:24:26;6.60;99.90
563;DHT22;266;49.514;8.294;2023-02-10T15:26:55;6.60;99.90
563;DHT22;266;49.514;8.294;2023-02-10T15:29:23;6.70;99.90
563;DHT22;266;49.514;8.294;2023-02-10T15:31:54;6.70;99.90
563;DHT22;266;49.514;8.294;2023-02-10T15:34:24;6.70;99.90
563;DHT22;266;49.514;8.294;2023-02-10T15:36:57;6.70;99.90
563;DHT22;266;49.514;8.294;2023-02-10T15:39:29;6.70;99.90
563;DHT22;266;49.514;8.294;2023-02-10T15:42:06;6.80;99.90
563;DHT22;266;49.514;8.294;2023-02-10T15:44:45;6.70;99.90
563;DHT22;266;49.514;8.294;2023-02-10T15:47:22;6.80;99.90
563;DHT22;266;49.514;8.294;2023-02-10T15:49:54;6.70;99.90
563;DHT22;266;49.514;8.294;2023-02-10T15:52:24;6.70;99.90
563;DHT22;266;49.514;8.294;2023-02-10T15:54:58;6.70;99.90
563;DHT22;266;49.514;8.294;2023-02-10T15:57:26;6.70;99.90
563;DHT22;266;49.514;8.294;2023-02-10T15:59:54;6.70;99.90
563;DHT22;266;49.514;8.294;2023-02-10T16:02:23;6.70;99.90
563;DHT22;266;49.514;8.294;2023-02-10T16:04:52;6.60;99.90
563;DHT22;266;49.514;8.294;2023-02-10T16:07:23;6.70;99.90
563;DHT22;266;49.514;8.294;2023-02-10T16:09:54;6.70;99.90
563;DHT22;266;49.514;8.294;2023-02-10T16:12:24;6.60;99.90
563;DHT22;266;49.514;8.294;2023-02-10T16:14:52;6.60;99.90
563;DHT22;266;49.514;8.294;2023-02-10T16:17:23;6.60;99.90
563;DHT22;266;49.514;8.294;2023-02-10T16:19:52;6.50;99.90
563;DHT22;266;49.514;8.294;2023-02-10T16:22:20;6.50;99.90
563;DHT22;266;49.514;8.294;2023-02-10T16:24:48;6.40;99.90
563;DHT22;266;49.514;8.294;2023-02-10T16:27:17;6.40;99.90
563;DHT22;266;49.514;8.294;2023-02-10T16:29:45;6.40;99.90
563;DHT22;266;49.514;8.294;2023-02-10T16:32:14;6.40;99.90
563;DHT22;266;49.514;8.294;2023-02-10T16:34:42;6.30;99.90
563;DHT22;266;49.514;8.294;2023-02-10T16:37:17;6.20;99.90
563;DHT22;266;49.514;8.294;2023-02-10T16:39:46;6.20;99.90
563;DHT22;266;49.514;8.294;2023-02-10T16:42:14;6.20;99.90
563;DHT22;266;49.514;8.294;2023-02-10T16:44:44;6.10;99.90
563;DHT22;266;49.514;8.294;2023-02-10T16:47:17;6.00;99.90
563;DHT22;266;49.514;8.294;2023-02-10T16:49:45;5.90;99.90
563;DHT22;266;49.514;8.294;2023-02-10T16:52:13;5.90;99.90
563;DHT22;266;49.514;8.294;2023-02-10T16:54:46;5.80;99.90
563;DHT22;266;49.514;8.294;2023-02-10T16:57:15;5.70;99.90
563;DHT22;266;49.514;8.294;2023-02-10T16:59:44;5.80;99.90
563;DHT22;266;49.514;8.294;2023-02-10T17:02:12;5.80;99.90
563;DHT22;266;49.514;8.294;2023-02-10T17:04:40;5.80;99.90
563;DHT22;266;49.514;8.294;2023-02-10T17:07:09;5.80;99.90
563;DHT22;266;49.514;8.294;2023-02-10T17:09:37;5.70;99.90
563;DHT22;266;49.514;8.294;2023-02-10T17:12:06;5.60;99.90
563;DHT22;266;49.514;8.294;2023-02-10T17:14:34;5.60;99.90